• Join FlightAware (Why Join?)
  • Login
  • US Flag 
07:53PM EDT


 

Airport Tracker/Info


-or-


 

Live Flight TrackerFlight Track Log ✈ SWA1865 ✈ 04-Aug-2013 ✈ KBWI - KMHT

Flight Track Log - Related Links

Times and Time Zones

All times are in EDT time to prevent confusion due to time zone crossing. See the SWA1865 flight status page for this flight to view local times or setup timezone preferences in your user account.

Time Position Orientation Groundspeed Altitude Reporting Facility
EDT Latitude Longitude Course Direction KTS MPH feet Rate Location/Type
10:06AM 39.1150 -76.6536 144° Southeast 102 117 6,700  Level Washington Center
10:07AM 39.1264 -76.5494 82° East 191 220 8,800 1,920 Climbing Washington Center
10:08AM 39.1333 -76.4372 85° East 271 312 10,700 2,280 Climbing Washington Center
10:09AM 39.1447 -76.3089 83° East 318 366 13,400 2,700 Climbing Washington Center
10:10AM 39.1600 -76.1564 83° East 374 430 16,100 2,400 Climbing Washington Center
10:11AM 39.1772 -76.0172 81° East 391 450 18,200 2,040 Climbing Washington Center
10:12AM 39.2153 -75.8808 70° East 391 450 20,300 1,980 Climbing Washington Center
10:13AM 39.2947 -75.7739 46° Northeast 392 451 22,300 1,680 Climbing Washington Center
10:14AM 39.3803 -75.6722 43° Northeast 405 466 23,800 1,620 Climbing Washington Center
10:15AM 39.4697 -75.5592 44° Northeast 416 479 25,600 1,680 Climbing Washington Center
10:16AM 39.5508 -75.4408 48° Northeast 429 494 27,200 1,320 Climbing Washington Center
10:17AM 39.6383 -75.3167 48° Northeast 444 511 28,300 1,080 Climbing Washington Center
10:18AM 39.7253 -75.1922 48° Northeast 451 519 29,400 1,140 Climbing Washington Center
10:19AM 39.8411 -75.0208 49° Northeast 471 542 31,100 1,200 Climbing New York Center
10:20AM 39.9331 -74.8911 47° Northeast 478 550 32,400 1,320 Climbing New York Center
10:21AM 40.0450 -74.7947 33° Northeast 476 548 33,700 1,260 Climbing New York Center
10:22AM 40.1631 -74.7528 15° North 434 499 35,000 600 Climbing New York Center
10:23AM 40.2833 -74.7078 16° North 434 499 35,000  Level New York Center
10:24AM 40.4078 -74.6658 14° North 445 512 35,000  Level New York Center
10:25AM 40.5300 -74.6211 16° North 451 519 35,000  Level New York Center
10:26AM 40.6544 -74.5761 15° North 461 531 35,000  Level New York Center
10:27AM 40.7789 -74.5308 15° North 461 531 35,000  Level New York Center
10:29AM 41.0281 -74.4431 15° North 481 554 35,000  Level Boston Center
10:30AM 41.1517 -74.3975 16° North 475 547 35,000  Level Boston Center
10:31AM 41.2756 -74.3514 16° North 475 547 35,000  Level Boston Center
10:32AM 41.4033 -74.3053 15° North 465 535 35,000  Level Boston Center
10:33AM 41.5311 -74.2619 14° North 460 529 35,000 -420 Level Boston Center
10:34AM 41.6550 -74.2128 17° North 460 529 34,200 -900 Descending Boston Center
10:35AM 41.7828 -74.1661 15° North 460 529 33,300 -1,080 Descending Boston Center
10:36AM 41.9169 -74.1225 14° North 453 521 32,200 -960 Descending Boston Center
10:37AM 42.0225 -74.0161 37° Northeast 459 528 31,400 -840 Descending Boston Center
10:38AM 42.0936 -73.8558 59° Northeast 457 526 30,500 -900 Descending Boston Center
10:39AM 42.1533 -73.7256 58° Northeast 475 547 29,700 -960 Descending Boston Center
10:40AM 42.2367 -73.5364 59° Northeast 501 577 28,600 -1,080 Descending Boston Center
10:41AM 42.3089 -73.3806 58° Northeast 501 577 27,600 -1,020 Descending Boston Center
10:42AM 42.3811 -73.2242 58° Northeast 489 563 26,600 -1,020 Descending Boston Center
10:43AM 42.4508 -73.0647 59° Northeast 489 563 25,600 -1,020 Descending Boston Center
10:44AM 42.5203 -72.9106 59° Northeast 489 563 24,600 -1,680 Descending Boston Center
10:45AM 42.5875 -72.7558 59° Northeast 482 555 22,200 -2,640 Descending Boston Center
10:46AM 42.6628 -72.6039 56° Northeast 449 517 19,300 -2,700 Descending Boston Center
10:47AM 42.7150 -72.4739 61° Northeast 437 503 17,000 -2,580 Descending Boston Center
10:48AM 42.7756 -72.3411 58° Northeast 422 486 14,300 -2,880 Descending Boston Center
10:49AM 42.8003 -72.1797 78° East 395 455 11,200 -2,040 Descending Boston Center
10:50AM 42.8122 -72.0411 83° East 382 440 10,200 -1,080 Descending Boston Center
10:51AM 42.8161 -71.9250 87° East 333 383 9,100 -1,440 Descending Boston Center
10:52AM 42.8092 -71.8117 95° East 307 353 7,400 -1,860 Descending Boston Center
10:53AM 42.8003 -71.7014 96° East 292 336 5,400 -1,800 Descending Boston Center
10:54AM 42.7956 -71.6083 94° East 286 329 3,800 -1,440 Descending Boston Center
10:55AM 42.7883 -71.4981 95° East 269 310 2,500 -720 Descending Boston Center
10:56AM 42.7917 -71.4186 87° East 243 280 2,500  Level Boston Center
10:57AM 42.8331 -71.3783 36° Northeast 195 224 2,500 -600 Level Boston Center
10:58AM 42.8686 -71.3975 338° Northwest 135 155 1,400 -1,020 Descending Boston Center
10:59AM 42.9000 -71.4167 336° Northwest 142 163 800 2,460 Descending KA90
11:01AM 42.9775 -71.4583 339° North 145 167 9,000 2,280 Climbing Boston Center
11:03AM 43.0217 -71.4831 338° Northwest 145 167 9,000  Level Boston Center
11:04AM 43.0592 -71.5022 340° North 145 167 9,000  Level Boston Center
11:06AM 42.9328 -71.4358 166° South  Level Estimated
11:13AM 42.9328 -71.4358 166° South  Level Estimated
11:14AM 42.9328 -71.4358 166° South  Level Estimated
11:15AM 42.9328 -71.4358 166° South  Level Estimated
11:16AM 42.9328 -71.4358 166° South  Level Estimated